.
WxDataArchive / Data Records for 2013-11-02
2013-11-01 November 2013 2013-11-03

Data Records for Saturday, 02 November 2013

Time	Temp	Chill	HIndex	Humid	Dewpt	 Wind 	HiWind	WindDir	Rain 	Barom 
-----	----	-----	------	-----	-----	------	------	-------	-----	----- 
00:00	46.5	46.5	46.5	88	43.1	0	2	270	0.00	29.693 
00:05	46.5	46.5	46.5	89	43.4	0	1	270	0.00	29.693 
00:10	46.4	46.4	46.4	89	43.3	0	1	270	0.00	29.693 
00:15	46.4	46.4	46.4	89	43.3	0	1	270	0.00	29.688 
00:20	46.4	46.4	46.4	89	43.3	0	2	270	0.00	29.688 
00:25	46.2	46.2	46.2	89	43.1	0	1	270	0.00	29.688 
00:30	46.2	46.2	46.2	89	43.1	0	1	270	0.00	29.685 
00:35	46.1	46.1	46.1	89	43.0	1	3	270	0.00	29.685 
00:40	46.1	46.1	46.1	89	43.0	1	3	270	0.00	29.685 
00:45	46.1	46.1	46.1	89	43.0	0	1	270	0.00	29.685 
00:50	46.2	46.2	46.2	89	43.1	0	2	270	0.00	29.685 
00:55	46.1	46.1	46.1	89	43.0	1	3	270	0.00	29.685 
01:00	46.1	46.1	46.1	88	42.7	0	4	270	0.00	29.688 
01:05	46.1	46.1	46.1	88	42.7	0	2	248	0.00	29.688 
01:10	46.1	46.1	46.1	88	42.7	0	2	248	0.00	29.688 
01:15	46.0	46.0	46.0	88	42.6	0	1	248	0.00	29.691 
01:20	46.0	46.0	46.0	88	42.6	0	3	248	0.00	29.691 
01:25	46.0	46.0	46.0	88	42.6	0	3	248	0.00	29.691 
01:30	46.0	46.0	46.0	88	42.6	1	3	248	0.00	29.688 
01:35	46.0	46.0	46.0	88	42.6	0	2	248	0.00	29.688 
01:40	46.0	46.0	46.0	88	42.6	0	3	248	0.00	29.688 
01:45	46.0	46.0	46.0	87	42.4	1	3	248	0.00	29.687 
01:50	46.0	46.0	46.0	88	42.6	0	1	248	0.00	29.687 
01:55	46.0	46.0	46.0	88	42.6	1	4	248	0.00	29.687 
02:00	46.0	46.0	46.0	88	42.6	0	1	248	0.00	29.691 
02:05	46.0	46.0	46.0	88	42.6	0	2	248	0.00	29.691 
02:10	45.8	45.8	45.8	88	42.5	0	3	248	0.00	29.691 
02:15	45.8	45.8	45.8	88	42.5	0	2	248	0.00	29.693 
02:20	45.8	45.8	45.8	88	42.5	0	2	248	0.00	29.693 
02:25	45.8	45.8	45.8	88	42.5	0	3	248	0.00	29.693 
02:30	45.7	45.7	45.7	88	42.4	1	3	248	0.00	29.695 
02:35	45.7	45.7	45.7	88	42.4	0	1	248	0.00	29.695 
02:40	45.7	45.7	45.7	88	42.4	1	4	248	0.00	29.695 
02:45	45.5	45.5	45.5	89	42.4	1	2	248	0.01	29.696 
02:50	45.4	45.4	45.4	89	42.3	0	2	248	0.00	29.696 
02:55	45.4	45.4	45.4	89	42.3	1	4	248	0.00	29.696 
03:00	45.4	45.4	45.4	89	42.3	0	3	248	0.00	29.696 
03:05	45.2	45.2	45.2	89	42.2	0	2	248	0.00	29.696 
03:10	45.2	45.2	45.2	90	42.4	0	2	248	0.00	29.696 
03:15	45.2	45.2	45.2	90	42.4	1	3	248	0.00	29.698 
03:20	45.2	45.2	45.2	90	42.4	0	3	248	0.00	29.698 
03:25	45.2	45.2	45.2	90	42.4	0	3	248	0.00	29.698 
03:30	45.2	45.2	45.2	90	42.4	0	2	248	0.00	29.701 
03:35	45.2	45.2	45.2	90	42.4	0	2	248	0.00	29.701 
03:40	45.1	45.1	45.1	90	42.3	0	2	248	0.00	29.701 
03:45	45.1	45.1	45.1	90	42.3	0	2	248	0.00	29.702 
03:50	45.1	45.1	45.1	91	42.6	0	2	248	0.00	29.702 
03:55	45.1	45.1	45.1	91	42.6	0	3	248	0.00	29.702 
04:00	45.1	45.1	45.1	91	42.6	0	2	248	0.00	29.701 
04:05	44.9	44.9	44.9	91	42.4	0	2	248	0.00	29.701 
04:10	44.9	44.9	44.9	91	42.4	0	3	248	0.00	29.701 
04:15	44.9	44.9	44.9	91	42.4	0	1	248	0.00	29.699 
04:20	44.9	44.9	44.9	91	42.4	0	1	248	0.00	29.699 
04:25	44.9	44.9	44.9	92	42.7	0	1	248	0.00	29.699 
04:30	44.9	44.9	44.9	92	42.7	0	2	248	0.00	29.706 
04:35	44.8	44.8	44.8	92	42.6	0	2	248	0.00	29.706 
04:40	44.8	44.8	44.8	92	42.6	0	1	248	0.00	29.706 
04:45	44.8	44.8	44.8	92	42.6	0	2	248	0.00	29.709 
04:50	44.6	44.6	44.6	92	42.4	0	1	248	0.00	29.709 
04:55	44.5	44.5	44.5	92	42.3	0	1	248	0.00	29.709 
05:00	44.5	44.5	44.5	92	42.3	0	2	248	0.00	29.710 
05:05	44.6	44.6	44.6	92	42.4	0	1	248	0.00	29.710 
05:10	44.6	44.6	44.6	92	42.4	0	1	248	0.00	29.710 
05:15	44.6	44.6	44.6	92	42.4	0	1	248	0.00	29.712 
05:20	44.6	44.6	44.6	92	42.4	0	2	248	0.00	29.712 
05:25	44.8	44.8	44.8	92	42.6	0	2	248	0.00	29.712 
05:30	44.8	44.8	44.8	92	42.6	0	2	248	0.00	29.718 
05:35	44.8	44.8	44.8	92	42.6	0	2	248	0.00	29.718 
05:40	44.8	44.8	44.8	91	42.3	0	3	248	0.00	29.718 
05:45	44.8	44.8	44.8	91	42.3	0	3	248	0.00	29.723 
05:50	44.8	44.8	44.8	91	42.3	0	1	248	0.00	29.723 
05:55	44.8	44.8	44.8	91	42.3	0	1	248	0.00	29.723 
06:00	44.8	44.8	44.8	91	42.3	0	1	248	0.00	29.726 
06:05	44.6	44.6	44.6	91	42.1	0	2	248	0.00	29.726 
06:10	44.5	44.5	44.5	91	42.0	0	1	248	0.00	29.726 
06:15	44.3	44.3	44.3	91	41.8	0	1	248	0.00	29.730 
06:20	44.2	44.2	44.2	91	41.7	0	1	248	0.00	29.730 
06:25	44.1	44.1	44.1	91	41.6	0	1	248	0.00	29.730 
06:30	44.1	44.1	44.1	91	41.6	0	1	248	0.00	29.731 
06:35	44.1	44.1	44.1	91	41.6	0	1	248	0.00	29.731 
06:40	43.9	43.9	43.9	91	41.4	0	2	248	0.00	29.731 
06:45	43.9	43.9	43.9	91	41.4	0	1	248	0.00	29.732 
06:50	44.1	44.1	44.1	91	41.6	0	1	248	0.00	29.732 
06:55	44.1	44.1	44.1	91	41.6	0	1	248	0.00	29.732 
07:00	44.1	44.1	44.1	91	41.6	0	2	248	0.00	29.744 
07:05	44.2	44.2	44.2	91	41.7	0	1	248	0.00	29.744 
07:10	44.2	44.2	44.2	91	41.7	0	2	248	0.00	29.744 
07:15	44.1	44.1	44.1	91	41.6	0	2	248	0.00	29.744 
07:20	44.1	44.1	44.1	91	41.6	0	1	248	0.00	29.744 
07:25	43.9	43.9	43.9	91	41.4	0	1	248	0.00	29.744 
07:30	43.8	43.8	43.8	91	41.3	0	1	248	0.00	29.745 
07:35	43.6	43.6	43.6	91	41.1	0	1	248	0.00	29.745 
07:40	43.6	43.6	43.6	91	41.1	0	1	248	0.00	29.745 
07:45	43.6	43.6	43.6	91	41.1	0	1	248	0.00	29.747 
07:50	43.6	43.6	43.6	91	41.1	0	1	248	0.00	29.747 
07:55	43.6	43.6	43.6	91	41.1	0	1	248	0.00	29.747 
08:00	43.6	43.6	43.6	91	41.1	0	1	248	0.00	29.753 
08:05	43.8	43.8	43.8	92	41.6	0	1	248	0.00	29.753 
08:10	43.8	43.8	43.8	92	41.6	0	1	248	0.00	29.753 
08:15	43.8	43.8	43.8	92	41.6	0	1	248	0.00	29.759 
08:20	43.9	43.9	43.9	92	41.7	0	1	248	0.00	29.759 
08:25	44.1	44.1	44.1	92	41.9	0	2	248	0.00	29.759 
08:30	44.1	44.1	44.1	92	41.9	0	1	248	0.00	29.761 
08:35	44.2	44.2	44.2	92	42.0	0	2	248	0.00	29.761 
08:40	44.2	44.2	44.2	91	41.7	0	3	248	0.00	29.761 
08:45	44.2	44.2	44.2	91	41.7	0	2	248	0.00	29.765 
08:50	44.2	44.2	44.2	91	41.7	0	3	248	0.00	29.765 
08:55	44.2	44.2	44.2	91	41.7	0	2	248	0.00	29.765 
09:00	44.2	44.2	44.2	91	41.7	0	2	248	0.00	29.772 
09:05	44.3	44.3	44.3	91	41.8	0	2	248	0.00	29.772 
09:10	44.2	44.2	44.2	90	41.5	1	3	248	0.00	29.772 
09:15	44.3	44.3	44.3	90	41.6	1	2	248	0.00	29.778 
09:20	44.3	44.3	44.3	90	41.6	1	3	248	0.00	29.778 
09:25	44.3	44.3	44.3	89	41.3	0	2	248	0.00	29.778 
09:30	44.3	44.3	44.3	89	41.3	1	3	248	0.00	29.785 
09:35	44.3	44.3	44.3	89	41.3	0	3	248	0.00	29.785 
09:40	44.3	44.3	44.3	89	41.3	0	1	248	0.00	29.785 
09:45	44.5	44.5	44.5	89	41.5	0	3	248	0.00	29.790 
09:50	44.6	44.6	44.6	89	41.6	0	1	248	0.00	29.790 
09:55	44.6	44.6	44.6	89	41.6	0	1	248	0.00	29.790 
10:00	44.8	44.8	44.8	89	41.8	0	1	248	0.00	29.793 
10:05	44.9	44.9	44.9	89	41.9	0	2	248	0.00	29.793 
10:10	45.4	45.4	45.4	89	42.3	1	4	248	0.00	29.793 
10:15	45.7	45.7	45.7	88	42.4	1	3	248	0.00	29.795 
10:20	45.7	45.7	45.7	87	42.1	1	3	248	0.00	29.795 
10:25	45.8	45.8	45.8	86	41.9	1	5	248	0.00	29.795 
10:30	45.8	45.8	45.8	86	41.9	2	4	270	0.00	29.800 
10:35	46.0	46.0	46.0	86	42.0	1	3	270	0.00	29.800 
10:40	46.0	46.0	46.0	85	41.7	1	4	270	0.00	29.800 
10:45	46.0	46.0	46.0	85	41.7	1	3	270	0.00	29.804 
10:50	46.2	46.2	46.2	85	41.9	1	3	270	0.00	29.804 
10:55	46.4	46.4	46.4	84	41.8	2	4	292	0.00	29.804 
11:00	46.5	46.5	46.5	84	41.9	1	5	292	0.00	29.807 
11:05	46.5	46.5	46.5	83	41.6	1	4	315	0.00	29.807 
11:10	46.7	46.7	46.7	83	41.8	1	4	315	0.00	29.807 
11:15	46.7	46.7	46.7	82	41.5	2	5	315	0.00	29.807 
11:20	46.8	46.8	46.8	82	41.6	1	3	292	0.00	29.807 
11:25	47.1	47.1	47.1	82	41.9	1	2	292	0.00	29.807 
11:30	47.1	47.1	47.1	81	41.6	1	5	292	0.00	29.815 
11:35	47.1	47.1	47.1	81	41.6	1	3	315	0.00	29.815 
11:40	47.3	47.3	47.3	81	41.8	1	4	292	0.00	29.815 
11:45	47.6	47.6	47.6	80	41.7	1	4	292	0.00	29.819 
11:50	47.6	47.6	47.6	80	41.7	1	4	292	0.00	29.819 
11:55	47.6	47.6	47.6	80	41.7	1	4	292	0.00	29.819 
12:00	47.6	47.6	47.6	79	41.4	3	6	292	0.00	29.822 
12:05	47.6	47.6	47.6	79	41.4	2	6	315	0.00	29.822 
12:10	47.6	47.6	47.6	79	41.4	1	5	315	0.00	29.822 
12:15	47.6	47.6	47.6	79	41.4	1	4	338	0.00	29.825 
12:20	47.7	47.7	47.7	79	41.5	1	4	315	0.00	29.825 
12:25	47.7	47.7	47.7	79	41.5	1	3	315	0.00	29.825 
12:30	47.7	47.7	47.7	78	41.2	1	4	315	0.00	29.831 
12:35	47.7	47.7	47.7	78	41.2	2	6	315	0.00	29.831 
12:40	47.7	47.7	47.7	78	41.2	3	6	292	0.00	29.831 
12:45	47.7	47.7	47.7	79	41.5	1	3	292	0.00	29.836 
12:50	47.9	47.9	47.9	78	41.4	2	4	270	0.00	29.836 
12:55	48.0	48.0	48.0	77	41.1	2	4	292	0.00	29.836 
13:00	48.0	48.0	48.0	77	41.1	2	5	292	0.00	29.837 
13:05	48.0	48.0	48.0	77	41.1	1	4	270	0.00	29.837 
13:10	47.9	47.9	47.9	77	41.0	2	4	315	0.00	29.837 
13:15	48.0	48.0	48.0	78	41.5	1	4	315	0.00	29.838 
13:20	48.5	48.5	48.5	78	42.0	1	3	315	0.00	29.838 
13:25	48.8	48.8	48.8	77	41.9	2	4	270	0.00	29.838 
13:30	48.9	48.9	48.9	77	42.0	2	4	315	0.00	29.841 
13:35	49.2	49.2	49.2	76	42.0	1	6	270	0.00	29.841 
13:40	49.5	49.5	49.5	75	41.9	1	3	292	0.00	29.841 
13:45	49.5	49.5	49.5	74	41.6	1	5	292	0.00	29.838 
13:50	49.4	49.4	49.4	74	41.5	2	4	292	0.00	29.838 
13:55	49.2	49.2	49.2	75	41.6	2	5	292	0.00	29.838 
14:00	48.5	48.5	48.5	78	42.0	2	5	270	0.00	29.844 
14:05	47.6	47.6	47.6	78	41.1	3	7	292	0.00	29.844 
14:10	47.1	47.1	47.1	79	40.9	1	5	292	0.00	29.844 
14:15	47.1	47.1	47.1	80	41.3	1	3	292	0.00	29.852 
14:20	47.3	47.3	47.3	79	41.1	1	4	292	0.00	29.852 
14:25	47.7	47.7	47.7	79	41.5	1	5	315	0.00	29.852 
14:30	48.0	48.0	48.0	77	41.1	2	5	292	0.00	29.854 
14:35	47.9	47.9	47.9	77	41.0	2	6	338	0.00	29.854 
14:40	47.6	47.6	47.6	80	41.7	1	3	338	0.00	29.854 
14:45	47.6	47.6	47.6	81	42.1	1	5	338	0.00	29.857 
14:50	47.9	47.9	47.9	81	42.4	2	4	292	0.00	29.857 
14:55	48.0	48.0	48.0	80	42.1	1	4	315	0.00	29.857 
15:00	48.0	48.0	48.0	80	42.1	1	4	338	0.00	29.863 
15:05	48.2	48.2	48.2	79	42.0	1	2	338	0.00	29.863 
15:10	48.5	48.5	48.5	78	42.0	1	4	338	0.00	29.863 
15:15	48.6	48.6	48.6	78	42.1	1	5	338	0.00	29.868 
15:20	48.8	48.8	48.8	78	42.2	0	2	338	0.01	29.868 
15:25	48.9	48.9	48.9	76	41.7	1	3	338	0.00	29.868 
15:30	48.8	48.8	48.8	74	40.9	1	6	315	0.00	29.873 
15:35	48.8	48.8	48.8	73	40.5	2	4	315	0.00	29.873 
15:40	48.9	48.9	48.9	74	41.0	1	3	338	0.00	29.873 
15:45	49.2	49.2	49.2	73	40.9	1	3	338	0.00	29.882 
15:50	49.6	49.6	49.6	70	40.2	2	5	338	0.00	29.882 
15:55	49.6	49.6	49.6	69	39.9	1	4	338	0.00	29.882 
16:00	49.4	49.4	49.4	68	39.3	1	4	338	0.00	29.886 
16:05	49.1	49.1	49.1	69	39.4	1	4	338	0.00	29.886 
16:10	49.1	49.1	49.1	67	38.6	2	5	292	0.00	29.886 
16:15	48.9	48.9	48.9	68	38.8	2	5	315	0.00	29.893 
16:20	48.9	48.9	48.9	69	39.2	1	5	315	0.00	29.893 
16:25	48.9	48.9	48.9	68	38.8	1	5	338	0.00	29.893 
16:30	48.8	48.8	48.8	65	37.6	2	6	315	0.00	29.902 
16:35	48.9	48.9	48.9	65	37.7	2	6	292	0.00	29.902 
16:40	48.9	48.9	48.9	66	38.0	1	6	292	0.00	29.902 
16:45	48.9	48.9	48.9	65	37.7	2	4	315	0.00	29.908 
16:50	48.8	48.8	48.8	66	38.0	1	3	315	0.00	29.908 
16:55	48.6	48.6	48.6	67	38.1	1	4	315	0.00	29.908 
17:00	48.5	48.5	48.5	68	38.4	1	4	292	0.00	29.915 
17:05	48.6	48.6	48.6	68	38.5	1	4	292	0.00	29.915 

CoCoRaHS
IN-AL-39
A2 Web Hosting
Creative Commons License
GoDaddy
search engine by freefind advanced

loaded 2018-11-13 23:20:21 • last modified 2010-11-18 10:43:29
Privacy PolicyDisclaimer
• wx.awcolley.com is powered by PmWiki v.2002016 •
• all content (unless otherwise noted) © 2018 A W Colley